sensor_id;sensor_type;location;lat;lon;timestamp;pressure;altitude;pressure_sealevel;temperature;humidity
45467;BME280;31212;49.734;8.490;2023-04-08T00:01:50;100964.69;;;7.53;93.65
45467;BME280;31212;49.734;8.490;2023-04-08T00:04:17;100966.34;;;7.49;93.63
45467;BME280;31212;49.734;8.490;2023-04-08T00:06:44;100976.66;;;7.49;93.56
45467;BME280;31212;49.734;8.490;2023-04-08T00:09:10;100971.59;;;7.54;93.53
45467;BME280;31212;49.734;8.490;2023-04-08T00:11:37;100972.31;;;7.47;93.67
45467;BME280;31212;49.734;8.490;2023-04-08T00:14:03;100978.41;;;7.50;93.92
45467;BME280;31212;49.734;8.490;2023-04-08T00:16:32;100980.88;;;7.46;93.91
45467;BME280;31212;49.734;8.490;2023-04-08T00:18:58;100988.72;;;7.50;93.70
45467;BME280;31212;49.734;8.490;2023-04-08T00:21:25;100982.75;;;7.53;93.71
45467;BME280;31212;49.734;8.490;2023-04-08T00:23:52;100981.72;;;7.45;93.63
45467;BME280;31212;49.734;8.490;2023-04-08T00:26:18;100979.03;;;7.40;93.71
45467;BME280;31212;49.734;8.490;2023-04-08T00:28:45;100985.94;;;7.41;93.87
45467;BME280;31212;49.734;8.490;2023-04-08T00:31:12;100978.94;;;7.37;94.28
45467;BME280;31212;49.734;8.490;2023-04-08T00:33:39;100982.59;;;7.45;93.97
45467;BME280;31212;49.734;8.490;2023-04-08T00:36:07;100984.31;;;7.46;94.12
45467;BME280;31212;49.734;8.490;2023-04-08T00:38:33;100984.19;;;7.40;94.38
45467;BME280;31212;49.734;8.490;2023-04-08T00:41:00;100984.00;;;7.34;94.45
45467;BME280;31212;49.734;8.490;2023-04-08T00:43:26;100986.59;;;7.34;94.22
45467;BME280;31212;49.734;8.490;2023-04-08T00:45:53;100982.22;;;7.31;93.89
45467;BME280;31212;49.734;8.490;2023-04-08T00:48:20;100993.63;;;7.39;94.79
45467;BME280;31212;49.734;8.490;2023-04-08T00:50:47;100984.81;;;7.31;94.84
45467;BME280;31212;49.734;8.490;2023-04-08T00:53:16;100988.94;;;7.24;94.16
45467;BME280;31212;49.734;8.490;2023-04-08T00:55:43;100986.44;;;7.26;94.97
45467;BME280;31212;49.734;8.490;2023-04-08T00:58:10;100995.00;;;7.25;95.06
45467;BME280;31212;49.734;8.490;2023-04-08T01:00:41;101001.09;;;7.29;95.10
45467;BME280;31212;49.734;8.490;2023-04-08T01:03:15;100995.78;;;7.22;94.64
45467;BME280;31212;49.734;8.490;2023-04-08T01:05:53;100998.63;;;7.32;95.19
45467;BME280;31212;49.734;8.490;2023-04-08T01:08:24;100995.78;;;7.22;94.31
45467;BME280;31212;49.734;8.490;2023-04-08T01:10:55;101001.78;;;7.21;94.74
45467;BME280;31212;49.734;8.490;2023-04-08T01:13:25;100993.13;;;7.19;95.21
45467;BME280;31212;49.734;8.490;2023-04-08T01:15:54;101005.16;;;7.19;95.40
45467;BME280;31212;49.734;8.490;2023-04-08T01:18:21;101000.78;;;7.16;95.20
45467;BME280;31212;49.734;8.490;2023-04-08T01:20:51;101006.13;;;7.22;95.73
45467;BME280;31212;49.734;8.490;2023-04-08T01:23:24;101007.75;;;7.19;95.40
45467;BME280;31212;49.734;8.490;2023-04-08T01:25:57;101005.13;;;7.17;95.62
45467;BME280;31212;49.734;8.490;2023-04-08T01:28:27;101005.94;;;7.16;95.81
45467;BME280;31212;49.734;8.490;2023-04-08T01:30:58;100999.09;;;7.17;95.97
45467;BME280;31212;49.734;8.490;2023-04-08T01:33:26;101010.09;;;7.11;95.52
45467;BME280;31212;49.734;8.490;2023-04-08T01:35:54;101001.47;;;7.09;96.05
45467;BME280;31212;49.734;8.490;2023-04-08T01:38:23;101004.00;;;7.07;96.26
45467;BME280;31212;49.734;8.490;2023-04-08T01:40:51;101010.09;;;7.11;95.92
45467;BME280;31212;49.734;8.490;2023-04-08T01:43:19;100997.19;;;7.11;95.99
45467;BME280;31212;49.734;8.490;2023-04-08T01:45:47;101007.53;;;7.11;95.94
45467;BME280;31212;49.734;8.490;2023-04-08T01:48:18;101006.72;;;7.14;96.14
45467;BME280;31212;49.734;8.490;2023-04-08T01:50:46;101003.22;;;7.10;96.13
45467;BME280;31212;49.734;8.490;2023-04-08T01:53:13;100997.44;;;7.20;96.38
45467;BME280;31212;49.734;8.490;2023-04-08T01:55:40;100999.69;;;7.08;96.29
45467;BME280;31212;49.734;8.490;2023-04-08T01:58:10;101002.31;;;7.10;96.57
45467;BME280;31212;49.734;8.490;2023-04-08T02:00:39;101005.84;;;7.12;96.40
45467;BME280;31212;49.734;8.490;2023-04-08T02:03:08;101003.03;;;7.04;96.07
45467;BME280;31212;49.734;8.490;2023-04-08T02:05:38;101003.78;;;7.00;96.13
45467;BME280;31212;49.734;8.490;2023-04-08T02:08:05;101011.72;;;7.06;97.03
45467;BME280;31212;49.734;8.490;2023-04-08T02:10:32;101004.91;;;7.10;97.17
45467;BME280;31212;49.734;8.490;2023-04-08T02:12:58;101009.22;;;7.09;97.47
45467;BME280;31212;49.734;8.490;2023-04-08T02:15:28;101018.50;;;7.02;97.16
45467;BME280;31212;49.734;8.490;2023-04-08T02:18:04;101012.53;;;7.05;97.37
45467;BME280;31212;49.734;8.490;2023-04-08T02:20:37;101022.91;;;7.06;97.88
45467;BME280;31212;49.734;8.490;2023-04-08T02:23:06;101022.78;;;7.02;97.96
45467;BME280;31212;49.734;8.490;2023-04-08T02:25:37;101021.03;;;7.01;97.58
45467;BME280;31212;49.734;8.490;2023-04-08T02:28:09;101025.44;;;7.05;97.72
45467;BME280;31212;49.734;8.490;2023-04-08T02:30:36;101017.81;;;7.10;97.41
45467;BME280;31212;49.734;8.490;2023-04-08T02:33:08;101017.00;;;7.11;98.00
45467;BME280;31212;49.734;8.490;2023-04-08T02:35:35;101020.25;;;7.03;97.83
45467;BME280;31212;49.734;8.490;2023-04-08T02:38:01;101017.53;;;6.99;97.91
45467;BME280;31212;49.734;8.490;2023-04-08T02:40:30;101019.56;;;7.11;98.10
45467;BME280;31212;49.734;8.490;2023-04-08T02:42:58;101019.38;;;7.04;98.38
45467;BME280;31212;49.734;8.490;2023-04-08T02:45:27;101022.22;;;7.14;98.03
45467;BME280;31212;49.734;8.490;2023-04-08T02:47:53;101017.84;;;7.11;98.07
45467;BME280;31212;49.734;8.490;2023-04-08T02:50:21;101016.31;;;7.18;97.32
45467;BME280;31212;49.734;8.490;2023-04-08T02:52:48;101019.59;;;7.12;97.31
45467;BME280;31212;49.734;8.490;2023-04-08T02:55:14;101019.66;;;7.14;97.20
45467;BME280;31212;49.734;8.490;2023-04-08T02:57:41;101015.41;;;7.16;98.00
45467;BME280;31212;49.734;8.490;2023-04-08T03:00:09;101022.34;;;7.17;98.02
45467;BME280;31212;49.734;8.490;2023-04-08T03:02:36;101023.22;;;7.19;97.78
45467;BME280;31212;49.734;8.490;2023-04-08T03:05:03;101016.28;;;7.16;97.46
45467;BME280;31212;49.734;8.490;2023-04-08T03:07:32;101018.75;;;7.12;97.20
45467;BME280;31212;49.734;8.490;2023-04-08T03:09:58;101012.41;;;7.00;96.84
45467;BME280;31212;49.734;8.490;2023-04-08T03:12:25;101016.81;;;7.04;97.85
45467;BME280;31212;49.734;8.490;2023-04-08T03:14:52;101013.09;;;6.95;98.02
45467;BME280;31212;49.734;8.490;2023-04-08T03:17:19;101019.72;;;6.85;97.64
45467;BME280;31212;49.734;8.490;2023-04-08T03:19:46;101029.03;;;6.80;98.43
45467;BME280;31212;49.734;8.490;2023-04-08T03:22:12;101034.78;;;6.69;99.19
45467;BME280;31212;49.734;8.490;2023-04-08T03:24:40;101037.38;;;6.69;99.29
45467;BME280;31212;49.734;8.490;2023-04-08T03:27:07;101041.56;;;6.66;99.95
45467;BME280;31212;49.734;8.490;2023-04-08T03:29:33;101039.84;;;6.66;100.00
45467;BME280;31212;49.734;8.490;2023-04-08T03:32:00;101043.19;;;6.64;100.00
45467;BME280;31212;49.734;8.490;2023-04-08T03:34:26;101043.78;;;6.53;100.00
45467;BME280;31212;49.734;8.490;2023-04-08T03:36:53;101046.63;;;6.63;100.00
45467;BME280;31212;49.734;8.490;2023-04-08T03:39:19;101055.19;;;6.62;100.00
45467;BME280;31212;49.734;8.490;2023-04-08T03:41:47;101051.09;;;6.68;100.00
45467;BME280;31212;49.734;8.490;2023-04-08T03:44:14;101048.97;;;6.55;100.00
45467;BME280;31212;49.734;8.490;2023-04-08T03:46:40;101053.13;;;6.50;100.00
45467;BME280;31212;49.734;8.490;2023-04-08T03:49:07;101051.47;;;6.52;100.00
45467;BME280;31212;49.734;8.490;2023-04-08T03:51:33;101049.50;;;6.45;100.00
45467;BME280;31212;49.734;8.490;2023-04-08T03:53:59;101059.00;;;6.46;100.00
45467;BME280;31212;49.734;8.490;2023-04-08T03:56:26;101054.59;;;6.42;100.00
45467;BME280;31212;49.734;8.490;2023-04-08T03:58:54;101054.56;;;6.40;100.00
45467;BME280;31212;49.734;8.490;2023-04-08T04:01:20;101056.88;;;6.32;100.00
45467;BME280;31212;49.734;8.490;2023-04-08T04:03:47;101055.00;;;6.27;100.00
45467;BME280;31212;49.734;8.490;2023-04-08T04:06:13;101060.94;;;6.24;100.00
45467;BME280;31212;49.734;8.490;2023-04-08T04:08:40;101060.00;;;6.22;100.00
45467;BME280;31212;49.734;8.490;2023-04-08T04:11:06;101060.72;;;6.18;100.00
45467;BME280;31212;49.734;8.490;2023-04-08T04:13:33;101063.00;;;6.09;100.00
45467;BME280;31212;49.734;8.490;2023-04-08T04:16:00;101055.19;;;6.05;100.00
45467;BME280;31212;49.734;8.490;2023-04-08T04:18:27;101060.16;;;5.99;100.00
45467;BME280;31212;49.734;8.490;2023-04-08T04:20:53;101062.78;;;6.01;100.00
45467;BME280;31212;49.734;8.490;2023-04-08T04:23:20;101061.88;;;6.00;100.00
45467;BME280;31212;49.734;8.490;2023-04-08T04:25:48;101070.28;;;5.95;100.00
45467;BME280;31212;49.734;8.490;2023-04-08T04:28:15;101075.41;;;5.95;100.00
45467;BME280;31212;49.734;8.490;2023-04-08T04:30:42;101071.00;;;5.90;100.00
45467;BME280;31212;49.734;8.490;2023-04-08T04:33:09;101080.44;;;5.90;100.00
45467;BME280;31212;49.734;8.490;2023-04-08T04:35:36;101077.66;;;5.84;100.00
45467;BME280;31212;49.734;8.490;2023-04-08T04:38:04;101075.88;;;5.83;100.00
45467;BME280;31212;49.734;8.490;2023-04-08T04:40:35;101083.03;;;5.90;100.00
45467;BME280;31212;49.734;8.490;2023-04-08T04:43:01;101082.75;;;5.82;100.00
45467;BME280;31212;49.734;8.490;2023-04-08T04:45:28;101082.13;;;5.89;100.00
45467;BME280;31212;49.734;8.490;2023-04-08T04:47:54;101082.66;;;5.79;100.00
45467;BME280;31212;49.734;8.490;2023-04-08T04:50:22;101084.03;;;5.69;100.00
45467;BME280;31212;49.734;8.490;2023-04-08T04:52:49;101085.75;;;5.69;100.00
45467;BME280;31212;49.734;8.490;2023-04-08T04:55:15;101087.94;;;5.58;100.00
45467;BME280;31212;49.734;8.490;2023-04-08T04:57:42;101099.75;;;5.51;100.00
45467;BME280;31212;49.734;8.490;2023-04-08T05:00:09;101100.47;;;5.47;100.00
45467;BME280;31212;49.734;8.490;2023-04-08T05:02:36;101094.88;;;5.35;100.00
45467;BME280;31212;49.734;8.490;2023-04-08T05:05:03;101101.31;;;5.23;100.00
45467;BME280;31212;49.734;8.490;2023-04-08T05:07:34;101101.94;;;5.16;100.00
45467;BME280;31212;49.734;8.490;2023-04-08T05:10:01;101095.06;;;5.17;100.00
45467;BME280;31212;49.734;8.490;2023-04-08T05:12:28;101096.59;;;5.10;100.00
45467;BME280;31212;49.734;8.490;2023-04-08T05:14:57;101099.03;;;5.07;100.00
45467;BME280;31212;49.734;8.490;2023-04-08T05:17:23;101097.25;;;5.06;100.00
45467;BME280;31212;49.734;8.490;2023-04-08T05:19:50;101093.66;;;5.01;100.00
45467;BME280;31212;49.734;8.490;2023-04-08T05:22:17;101098.69;;;4.98;100.00
45467;BME280;31212;49.734;8.490;2023-04-08T05:24:45;101097.56;;;4.91;100.00
45467;BME280;31212;49.734;8.490;2023-04-08T05:27:12;101097.72;;;4.94;100.00
45467;BME280;31212;49.734;8.490;2023-04-08T05:29:38;101096.47;;;4.84;100.00
45467;BME280;31212;49.734;8.490;2023-04-08T05:32:05;101095.84;;;4.90;100.00
45467;BME280;31212;49.734;8.490;2023-04-08T05:34:32;101107.09;;;4.94;100.00
45467;BME280;31212;49.734;8.490;2023-04-08T05:36:58;101104.13;;;4.83;100.00
45467;BME280;31212;49.734;8.490;2023-04-08T05:39:25;101108.47;;;4.84;100.00
45467;BME280;31212;49.734;8.490;2023-04-08T05:41:53;101107.25;;;4.97;100.00
45467;BME280;31212;49.734;8.490;2023-04-08T05:44:19;101108.34;;;5.03;100.00
45467;BME280;31212;49.734;8.490;2023-04-08T05:46:46;101111.69;;;5.01;100.00
45467;BME280;31212;49.734;8.490;2023-04-08T05:49:12;101111.78;;;5.04;100.00
45467;BME280;31212;49.734;8.490;2023-04-08T05:51:39;101117.03;;;5.07;100.00
45467;BME280;31212;49.734;8.490;2023-04-08T05:54:07;101114.59;;;5.10;100.00
45467;BME280;31212;49.734;8.490;2023-04-08T05:56:34;101113.59;;;5.07;100.00
45467;BME280;31212;49.734;8.490;2023-04-08T05:59:02;101114.59;;;5.10;100.00
45467;BME280;31212;49.734;8.490;2023-04-08T06:01:29;101113.03;;;5.15;100.00
45467;BME280;31212;49.734;8.490;2023-04-08T06:03:55;101116.28;;;5.10;100.00
45467;BME280;31212;49.734;8.490;2023-04-08T06:06:22;101113.75;;;5.11;99.98
45467;BME280;31212;49.734;8.490;2023-04-08T06:08:49;101125.56;;;5.06;100.00
45467;BME280;31212;49.734;8.490;2023-04-08T06:11:16;101132.03;;;4.95;100.00
45467;BME280;31212;49.734;8.490;2023-04-08T06:13:42;101134.44;;;4.90;100.00
45467;BME280;31212;49.734;8.490;2023-04-08T06:16:11;101131.72;;;5.10;100.00
45467;BME280;31212;49.734;8.490;2023-04-08T06:18:38;101129.88;;;5.30;99.93
45467;BME280;31212;49.734;8.490;2023-04-08T06:21:05;101126.31;;;5.26;99.17
45467;BME280;31212;49.734;8.490;2023-04-08T06:23:31;101120.63;;;5.35;98.70
45467;BME280;31212;49.734;8.490;2023-04-08T06:25:58;101134.63;;;5.19;97.98
45467;BME280;31212;49.734;8.490;2023-04-08T06:28:24;101127.34;;;5.31;97.88
45467;BME280;31212;49.734;8.490;2023-04-08T06:30:51;101125.81;;;5.36;97.10
45467;BME280;31212;49.734;8.490;2023-04-08T06:33:19;101129.81;;;5.28;96.91
45467;BME280;31212;49.734;8.490;2023-04-08T06:35:45;101125.50;;;5.27;96.76
45467;BME280;31212;49.734;8.490;2023-04-08T06:38:11;101124.44;;;5.22;96.73
45467;BME280;31212;49.734;8.490;2023-04-08T06:40:38;101126.59;;;5.34;96.39
45467;BME280;31212;49.734;8.490;2023-04-08T06:43:05;101122.38;;;5.36;96.22
45467;BME280;31212;49.734;8.490;2023-04-08T06:45:36;101124.59;;;5.49;95.74
45467;BME280;31212;49.734;8.490;2023-04-08T06:48:03;101116.56;;;5.92;94.95
45467;BME280;31212;49.734;8.490;2023-04-08T06:50:32;101102.81;;;6.17;93.23
45467;BME280;31212;49.734;8.490;2023-04-08T06:52:58;101098.38;;;7.28;91.83
45467;BME280;31212;49.734;8.490;2023-04-08T06:55:25;101044.94;;;7.94;88.41
45467;BME280;31212;49.734;8.490;2023-04-08T06:57:52;100986.44;;;7.98;85.19
45467;BME280;31212;49.734;8.490;2023-04-08T07:00:18;100927.28;;;8.13;82.82
45467;BME280;31212;49.734;8.490;2023-04-08T07:02:45;100879.59;;;8.00;81.75
45467;BME280;31212;49.734;8.490;2023-04-08T07:05:11;100850.31;;;8.01;80.76
45467;BME280;31212;49.734;8.490;2023-04-08T07:07:39;100843.50;;;8.05;80.32
45467;BME280;31212;49.734;8.490;2023-04-08T07:10:06;100839.69;;;7.87;79.77
45467;BME280;31212;49.734;8.490;2023-04-08T07:12:33;100817.72;;;8.08;78.82
45467;BME280;31212;49.734;8.490;2023-04-08T07:14:59;100816.47;;;8.33;78.68
45467;BME280;31212;49.734;8.490;2023-04-08T07:17:26;100782.25;;;8.47;77.75
45467;BME280;31212;49.734;8.490;2023-04-08T07:19:52;100788.22;;;8.95;76.99
45467;BME280;31212;49.734;8.490;2023-04-08T07:22:20;100745.66;;;8.77;76.08
45467;BME280;31212;49.734;8.490;2023-04-08T07:24:48;100726.19;;;9.01;75.35
45467;BME280;31212;49.734;8.490;2023-04-08T07:27:14;100780.94;;;8.24;76.42
45467;BME280;31212;49.734;8.490;2023-04-08T07:29:41;100796.91;;;8.46;76.38
45467;BME280;31212;49.734;8.490;2023-04-08T07:32:07;100798.56;;;7.98;76.99
45467;BME280;31212;49.734;8.490;2023-04-08T07:34:34;100832.38;;;7.68;77.50
45467;BME280;31212;49.734;8.490;2023-04-08T07:37:01;100869.16;;;7.94;78.01
45467;BME280;31212;49.734;8.490;2023-04-08T07:39:27;100862.66;;;8.15;78.17
45467;BME280;31212;49.734;8.490;2023-04-08T07:41:55;100849.50;;;8.04;77.33
45467;BME280;31212;49.734;8.490;2023-04-08T07:44:21;100841.94;;;8.12;77.13
45467;BME280;31212;49.734;8.490;2023-04-08T07:46:48;100860.63;;;8.41;77.40
45467;BME280;31212;49.734;8.490;2023-04-08T07:49:15;100837.16;;;8.79;76.27
45467;BME280;31212;49.734;8.490;2023-04-08T07:51:42;100751.69;;;8.27;75.16
45467;BME280;31212;49.734;8.490;2023-04-08T07:54:08;100763.69;;;9.28;74.46
45467;BME280;31212;49.734;8.490;2023-04-08T07:56:36;100742.69;;;9.73;73.35
45467;BME280;31212;49.734;8.490;2023-04-08T07:59:05;100675.72;;;9.35;72.59
45467;BME280;31212;49.734;8.490;2023-04-08T08:01:32;100660.91;;;8.64;72.41
45467;BME280;31212;49.734;8.490;2023-04-08T08:04:00;100726.69;;;8.78;73.07
45467;BME280;31212;49.734;8.490;2023-04-08T08:06:26;100733.59;;;8.76;73.46
45467;BME280;31212;49.734;8.490;2023-04-08T08:08:53;100731.34;;;9.64;72.63
45467;BME280;31212;49.734;8.490;2023-04-08T08:11:19;100717.72;;;9.82;72.35
45467;BME280;31212;49.734;8.490;2023-04-08T08:13:46;100699.88;;;9.34;72.11
45467;BME280;31212;49.734;8.490;2023-04-08T08:16:14;100714.88;;;9.62;72.02
45467;BME280;31212;49.734;8.490;2023-04-08T08:18:40;100678.00;;;9.87;71.16
45467;BME280;31212;49.734;8.490;2023-04-08T08:21:07;100658.66;;;10.45;69.98
45467;BME280;31212;49.734;8.490;2023-04-08T08:23:34;100655.47;;;10.83;69.72
45467;BME280;31212;49.734;8.490;2023-04-08T08:26:03;100607.16;;;11.18;67.84
45467;BME280;31212;49.734;8.490;2023-04-08T08:28:30;100557.84;;;11.66;66.73
45467;BME280;31212;49.734;8.490;2023-04-08T08:30:57;100538.81;;;11.85;66.46
45467;BME280;31212;49.734;8.490;2023-04-08T08:33:25;100518.88;;;12.07;65.58
45467;BME280;31212;49.734;8.490;2023-04-08T08:35:51;100544.00;;;12.25;65.13
45467;BME280;31212;49.734;8.490;2023-04-08T08:38:18;100478.06;;;11.18;64.47
45467;BME280;31212;49.734;8.490;2023-04-08T08:40:45;100602.94;;;11.66;66.76
45467;BME280;31212;49.734;8.490;2023-04-08T08:43:11;100553.53;;;12.31;64.87
45467;BME280;31212;49.734;8.490;2023-04-08T08:45:38;100545.72;;;12.42;64.61
45467;BME280;31212;49.734;8.490;2023-04-08T08:48:06;100480.56;;;12.54;63.27
45467;BME280;31212;49.734;8.490;2023-04-08T08:50:34;100481.53;;;12.28;63.72
45467;BME280;31212;49.734;8.490;2023-04-08T08:53:01;100485.72;;;12.68;62.61
45467;BME280;31212;49.734;8.490;2023-04-08T08:55:30;100432.13;;;12.01;62.17
45467;BME280;31212;49.734;8.490;2023-04-08T08:57:58;100539.53;;;12.74;63.14
45467;BME280;31212;49.734;8.490;2023-04-08T09:00:31;100399.59;;;12.98;60.65
45467;BME280;31212;49.734;8.490;2023-04-08T09:03:13;100390.06;;;12.92;60.10
45467;BME280;31212;49.734;8.490;2023-04-08T09:05:48;100291.66;;;11.91;59.59
45467;BME280;31212;49.734;8.490;2023-04-08T09:08:25;100376.72;;;11.51;60.83
45467;BME280;31212;49.734;8.490;2023-04-08T09:10:52;100448.56;;;12.24;60.82
45467;BME280;31212;49.734;8.490;2023-04-08T09:13:21;100458.50;;;13.20;60.26
45467;BME280;31212;49.734;8.490;2023-04-08T09:16:00;100323.75;;;11.84;59.44
45467;BME280;31212;49.734;8.490;2023-04-08T09:18:28;100348.56;;;12.64;59.22
45467;BME280;31212;49.734;8.490;2023-04-08T09:20:58;100400.50;;;12.89;59.54
45467;BME280;31212;49.734;8.490;2023-04-08T09:23:36;100397.53;;;11.06;61.30
45467;BME280;31212;49.734;8.490;2023-04-08T09:26:06;100512.78;;;11.70;62.23
45467;BME280;31212;49.734;8.490;2023-04-08T09:28:33;100498.06;;;11.97;61.17
45467;BME280;31212;49.734;8.490;2023-04-08T09:31:00;100419.13;;;11.99;60.10
45467;BME280;31212;49.734;8.490;2023-04-08T09:33:30;100490.25;;;11.53;61.97
45467;BME280;31212;49.734;8.490;2023-04-08T09:35:58;100490.19;;;12.37;60.88
45467;BME280;31212;49.734;8.490;2023-04-08T09:38:24;100437.38;;;11.74;60.44
45467;BME280;31212;49.734;8.490;2023-04-08T09:40:52;100525.78;;;11.77;61.86
45467;BME280;31212;49.734;8.490;2023-04-08T09:43:22;100532.66;;;12.53;60.77
45467;BME280;31212;49.734;8.490;2023-04-08T09:45:51;100436.47;;;11.89;60.02
45467;BME280;31212;49.734;8.490;2023-04-08T09:48:22;100450.97;;;12.71;59.80
45467;BME280;31212;49.734;8.490;2023-04-08T09:50:51;100366.25;;;11.88;59.12
45467;BME280;31212;49.734;8.490;2023-04-08T09:53:29;100364.94;;;12.83;58.10
45467;BME280;31212;49.734;8.490;2023-04-08T09:55:59;100260.31;;;12.21;57.20
45467;BME280;31212;49.734;8.490;2023-04-08T09:58:28;100302.03;;;12.08;57.69
45467;BME280;31212;49.734;8.490;2023-04-08T10:00:59;100245.47;;;12.32;56.72
45467;BME280;31212;49.734;8.490;2023-04-08T10:03:28;100287.34;;;11.90;57.24
45467;BME280;31212;49.734;8.490;2023-04-08T10:05:57;100317.59;;;12.16;57.65
45467;BME280;31212;49.734;8.490;2023-04-08T10:08:28;100311.34;;;12.45;56.85
45467;BME280;31212;49.734;8.490;2023-04-08T10:10:55;100287.97;;;12.40;56.76
45467;BME280;31212;49.734;8.490;2023-04-08T10:13:23;100319.31;;;12.22;57.72
45467;BME280;31212;49.734;8.490;2023-04-08T10:16:20;100318.38;;;12.34;57.45
45467;BME280;31212;49.734;8.490;2023-04-08T10:18:49;100326.19;;;12.31;57.38
45467;BME280;31212;49.734;8.490;2023-04-08T10:21:33;100346.88;;;12.52;57.48
45467;BME280;31212;49.734;8.490;2023-04-08T10:24:01;100324.41;;;12.40;57.55
45467;BME280;31212;49.734;8.490;2023-04-08T10:26:33;100336.44;;;12.65;56.88
45467;BME280;31212;49.734;8.490;2023-04-08T10:32:08;100266.56;;;11.83;56.91
45467;BME280;31212;49.734;8.490;2023-04-08T10:34:53;100407.00;;;11.84;58.73
45467;BME280;31212;49.734;8.490;2023-04-08T10:37:20;100373.06;;;12.34;57.90
45467;BME280;31212;49.734;8.490;2023-04-08T10:39:53;100318.81;;;12.98;55.94
45467;BME280;31212;49.734;8.490;2023-04-08T10:42:26;100279.38;;;13.38;55.09
45467;BME280;31212;49.734;8.490;2023-04-08T10:44:52;100301.00;;;13.48;55.33
45467;BME280;31212;49.734;8.490;2023-04-08T10:47:24;100201.47;;;13.02;54.29
45467;BME280;31212;49.734;8.490;2023-04-08T10:49:51;100127.53;;;12.27;54.32
45467;BME280;31212;49.734;8.490;2023-04-08T10:52:17;100211.25;;;12.82;54.74
45467;BME280;31212;49.734;8.490;2023-04-08T10:54:46;100252.41;;;13.34;54.66
45467;BME280;31212;49.734;8.490;2023-04-08T10:57:15;100206.47;;;13.22;53.96
45467;BME280;31212;49.734;8.490;2023-04-08T10:59:48;100108.34;;;13.18;52.10
45467;BME280;31212;49.734;8.490;2023-04-08T11:02:15;100092.22;;;13.58;51.26
45467;BME280;31212;49.734;8.490;2023-04-08T11:04:41;100071.63;;;13.96;50.26
45467;BME280;31212;49.734;8.490;2023-04-08T11:07:09;100075.66;;;14.16;50.39
45467;BME280;31212;49.734;8.490;2023-04-08T11:09:36;100070.00;;;13.90;50.21
45467;BME280;31212;49.734;8.490;2023-04-08T11:12:06;100049.28;;;13.19;51.06
45467;BME280;31212;49.734;8.490;2023-04-08T11:14:34;100149.84;;;14.01;51.24
45467;BME280;31212;49.734;8.490;2023-04-08T11:17:02;100105.94;;;14.26;50.46
45467;BME280;31212;49.734;8.490;2023-04-08T11:19:30;100183.31;;;14.32;51.21
45467;BME280;31212;49.734;8.490;2023-04-08T11:21:57;100094.25;;;14.49;49.95
45467;BME280;31212;49.734;8.490;2023-04-08T11:24:24;100053.34;;;14.47;49.08
45467;BME280;31212;49.734;8.490;2023-04-08T11:26:51;100056.44;;;14.20;49.68
45467;BME280;31212;49.734;8.490;2023-04-08T11:29:18;100118.00;;;15.28;49.11
45467;BME280;31212;49.734;8.490;2023-04-08T11:31:47;100105.84;;;15.26;48.90
45467;BME280;31212;49.734;8.490;2023-04-08T11:34:21;99988.84;;;13.53;49.23
45467;BME280;31212;49.734;8.490;2023-04-08T11:36:48;100042.41;;;13.75;49.58
45467;BME280;31212;49.734;8.490;2023-04-08T11:39:15;100151.91;;;14.88;49.43
45467;BME280;31212;49.734;8.490;2023-04-08T11:41:41;100050.91;;;14.85;48.43
45467;BME280;31212;49.734;8.490;2023-04-08T11:44:08;100055.97;;;14.46;48.77
45467;BME280;31212;49.734;8.490;2023-04-08T11:46:35;100074.34;;;13.27;50.53
45467;BME280;31212;49.734;8.490;2023-04-08T11:49:05;100196.81;;;14.04;51.16
45467;BME280;31212;49.734;8.490;2023-04-08T11:51:32;100153.34;;;14.54;50.21
45467;BME280;31212;49.734;8.490;2023-04-08T11:53:59;100098.38;;;15.89;48.06
45467;BME280;31212;49.734;8.490;2023-04-08T11:56:27;100099.69;;;15.68;48.30
45467;BME280;31212;49.734;8.490;2023-04-08T11:58:54;100080.22;;;15.81;47.84
45467;BME280;31212;49.734;8.490;2023-04-08T12:01:21;99967.66;;;16.16;46.51
45467;BME280;31212;49.734;8.490;2023-04-08T12:03:58;100076.22;;;14.82;49.27
45467;BME280;31212;49.734;8.490;2023-04-08T12:06:27;100092.41;;;14.54;49.67
45467;BME280;31212;49.734;8.490;2023-04-08T12:08:55;100124.41;;;14.15;50.28
45467;BME280;31212;49.734;8.490;2023-04-08T12:11:22;100182.84;;;12.52;53.17
45467;BME280;31212;49.734;8.490;2023-04-08T12:13:49;100241.94;;;12.42;53.85
45467;BME280;31212;49.734;8.490;2023-04-08T12:16:17;100364.66;;;13.22;54.96
45467;BME280;31212;49.734;8.490;2023-04-08T12:18:44;100337.53;;;12.17;55.13
45467;BME280;31212;49.734;8.490;2023-04-08T12:21:11;100391.66;;;13.10;54.95
45467;BME280;31212;49.734;8.490;2023-04-08T12:23:38;100390.88;;;14.01;54.23
45467;BME280;31212;49.734;8.490;2023-04-08T12:26:05;100328.91;;;13.38;54.36
45467;BME280;31212;49.734;8.490;2023-04-08T12:28:32;100280.13;;;13.48;53.37
45467;BME280;31212;49.734;8.490;2023-04-08T12:30:59;100344.03;;;13.89;54.13
45467;BME280;31212;49.734;8.490;2023-04-08T12:33:26;100302.69;;;14.84;52.26
45467;BME280;31212;49.734;8.490;2023-04-08T12:35:52;100371.19;;;15.05;53.35
45467;BME280;31212;49.734;8.490;2023-04-08T12:38:19;100261.88;;;15.27;51.85
45467;BME280;31212;49.734;8.490;2023-04-08T12:40:47;100243.59;;;15.69;50.53
45467;BME280;31212;49.734;8.490;2023-04-08T12:43:13;100298.81;;;15.07;52.54
45467;BME280;31212;49.734;8.490;2023-04-08T12:45:40;100305.91;;;14.42;53.37
45467;BME280;31212;49.734;8.490;2023-04-08T12:48:07;100275.00;;;14.74;52.13
45467;BME280;31212;49.734;8.490;2023-04-08T12:50:34;100278.09;;;15.44;51.65
45467;BME280;31212;49.734;8.490;2023-04-08T12:53:01;100182.19;;;15.87;49.81
45467;BME280;31212;49.734;8.490;2023-04-08T12:55:27;100126.47;;;15.79;49.40
45467;BME280;31212;49.734;8.490;2023-04-08T12:57:55;100141.13;;;14.55;50.96
45467;BME280;31212;49.734;8.490;2023-04-08T13:00:22;100227.88;;;14.78;51.91
45467;BME280;31212;49.734;8.490;2023-04-08T13:02:48;100224.47;;;14.73;51.68